Date,TemperatureHighF,TemperatureAvgF,TemperatureLowF,DewpointHighF,DewpointAvgF,DewpointLowF,HumidityHigh,HumidityAvg,HumidityLow,PressureMaxIn,PressureMinIn,WindSpeedMaxMPH,WindSpeedAvgMPH,GustSpeedMaxMPH,PrecipitationSumIn
2013-1-1,48.9,45.6,42.2,46.7,39.9,29.5,92,81,55,30.12,29.94,6,1,12,0.22
2013-1-2,48.8,45.4,41.3,44.6,39.0,32.7,92,79,62,30.17,29.92,7,2,12,0.09
2013-1-3,44.2,38.5,26.8,35.7,31.3,23.7,88,75,65,30.29,30.13,5,1,8,0.00
2013-1-4,51.2,35.0,21.4,32.4,22.6,18.4,90,65,31,30.37,30.24,6,1,14,0.00
2013-1-5,51.1,36.9,21.0,30.4,23.8,16.9,88,62,34,30.42,30.24,5,0,10,0.00
2013-1-6,55.8,43.2,32.0,39.1,34.6,26.8,88,73,52,30.25,30.04,7,0,16,0.01
2013-1-7,51.2,36.5,25.2,31.1,26.8,21.3,90,70,43,30.44,30.21,8,1,12,0.00
2013-1-8,51.5,37.4,22.9,40.1,30.9,19.6,90,78,60,30.49,30.38,2,0,6,0.00
2013-1-9,62.7,49.7,35.2,53.2,44.4,32.0,91,83,69,30.46,30.36,7,0,12,0.00
2013-1-10,64.3,52.6,42.9,50.2,41.2,36.0,92,68,39,30.52,30.38,7,1,9,0.00
2013-1-11,51.3,45.8,43.9,44.3,42.7,37.2,92,89,59,30.38,30.17,7,1,13,0.10
2013-1-12,66.1,54.7,46.5,61.1,52.0,44.3,93,91,83,30.17,30.08,3,0,6,0.00
2013-1-13,71.2,60.3,49.0,62.0,56.0,46.8,93,86,70,30.12,30.02,10,2,25,0.00
2013-1-14,64.2,62.3,55.7,62.1,59.9,53.1,93,92,89,30.13,30.03,12,1,20,0.31
2013-1-15,55.4,45.4,40.9,52.8,43.1,38.8,92,92,91,30.19,30.08,13,4,17,0.27
2013-1-16,48.8,44.7,40.9,46.9,42.7,38.8,93,92,92,30.08,29.97,5,1,7,0.42
2013-1-17,50.1,43.9,33.4,48.2,41.7,31.0,93,92,89,30.19,29.86,14,4,28,1.57
2013-1-18,46.8,35.8,26.9,34.8,28.5,24.0,92,76,46,30.53,30.20,5,0,9,0.12
2013-1-19,55.3,36.0,22.6,34.8,26.7,19.8,91,72,36,30.51,30.17,6,1,12,0.00
2013-1-20,63.3,45.0,27.9,38.4,30.0,24.0,89,59,32,30.17,30.02,9,2,15,0.00
2013-1-21,59.0,41.6,25.4,36.1,25.7,16.0,90,58,30,30.09,29.91,14,3,21,0.00
2013-1-22,40.0,32.5,27.4,18.1,5.6,-0.4,61,33,19,30.27,30.01,12,3,20,0.00
2013-1-23,46.0,32.7,19.5,21.3,15.3,1.2,75,50,29,30.37,30.06,8,1,14,0.00
2013-1-24,41.1,31.2,23.6,25.5,13.8,5.8,86,51,32,30.52,29.99,14,4,23,0.00
2013-1-25,27.0,23.4,17.3,23.9,16.4,7.4,88,75,50,30.54,30.15,7,1,12,0.00
2013-1-26,36.9,30.2,26.2,34.1,27.5,23.7,91,90,88,30.40,30.13,3,0,7,0.13
2013-1-27,42.6,33.0,20.6,31.0,26.3,17.3,90,77,58,30.60,30.40,6,0,12,0.00
2013-1-28,51.3,41.3,35.3,42.8,35.5,30.3,91,80,70,30.49,30.25,6,1,12,0.01
2013-1-29,72.5,55.3,39.9,58.7,48.9,37.5,93,81,57,30.26,30.01,9,1,18,0.00
2013-1-30,71.2,64.7,54.2,62.0,59.5,50.1,91,84,68,30.01,29.40,14,6,29,1.25
2013-1-31,53.8,42.3,36.1,49.7,27.5,20.6,87,57,38,30.00,29.44,16,6,30,0.01
2013-2-1,40.2,33.6,22.1,27.7,14.5,6.8,66,46,29,30.38,29.89,15,5,27,0.00
2013-2-2,42.2,31.4,18.3,34.6,18.7,12.9,86,62,33,30.42,30.05,9,2,21,0.01
2013-2-3,49.4,39.2,27.2,34.3,28.4,20.3,89,67,42,30.05,29.87,14,2,26,0.00
2013-2-4,49.8,37.3,24.4,28.0,24.5,19.0,86,62,40,30.16,30.00,6,1,12,0.00
2013-2-5,62.9,45.2,32.7,39.4,31.8,26.6,88,62,35,30.00,29.89,9,1,15,0.00
2013-2-6,62.9,43.3,27.8,35.8,27.1,22.5,90,59,22,30.25,29.99,7,1,13,0.00
2013-2-7,42.8,39.4,36.2,36.5,32.4,26.3,91,77,58,30.32,30.05,8,3,14,0.61
2013-2-8,57.2,45.4,37.3,46.4,35.9,27.1,91,72,37,30.11,29.88,12,3,22,0.02
2013-2-9,59.0,41.3,26.6,27.7,24.1,19.9,84,55,23,30.35,30.10,6,1,10,0.00
2013-2-10,53.5,40.3,27.2,38.8,27.6,22.1,88,65,30,30.47,30.19,8,1,15,0.15
2013-2-11,58.2,49.5,41.9,55.2,46.8,38.6,93,91,88,30.19,29.95,8,2,16,0.05
2013-2-12,58.3,48.3,37.3,47.8,35.5,27.5,90,65,31,30.11,29.91,3,0,8,0.01
2013-2-13,46.2,43.7,34.6,43.7,40.7,31.1,92,89,79,29.94,29.65,5,1,9,0.21
2013-2-14,53.7,39.2,26.6,39.2,30.8,24.1,91,75,46,30.08,29.87,7,1,16,0.00
2013-2-15,61.3,44.3,26.0,40.1,31.5,23.2,91,65,34,30.11,29.93,9,2,16,0.00
2013-2-16,44.4,36.0,28.4,31.8,26.9,15.9,88,70,55,30.00,29.84,8,2,16,0.00
2013-2-17,40.3,31.0,22.9,17.7,12.8,9.0,68,48,29,30.27,30.00,14,4,23,0.00
2013-2-18,53.3,36.3,16.9,28.0,20.9,11.7,85,56,35,30.41,30.21,6,1,12,0.00
2013-2-19,50.8,42.5,37.2,43.2,32.6,17.3,90,70,38,30.22,29.86,8,2,15,0.10
2013-2-20,54.4,40.4,24.4,21.4,14.5,7.9,76,38,18,30.14,30.02,9,2,18,0.00
2013-2-21,57.3,40.8,20.9,32.5,20.2,14.6,81,48,20,30.29,30.11,5,0,8,0.01
2013-2-22,42.1,36.6,35.1,34.9,33.6,32.2,91,89,69,30.32,30.14,6,1,13,0.45
2013-2-23,47.2,40.3,35.2,42.6,37.5,32.8,92,90,84,30.17,29.84,7,1,12,0.15
2013-2-24,63.2,49.2,33.9,41.7,33.3,23.1,92,61,25,30.03,29.84,12,2,20,0.00
2013-2-25,42.8,37.5,30.2,28.4,26.2,24.3,79,64,54,30.21,30.02,7,2,12,0.00
2013-2-26,39.5,36.0,32.5,37.4,32.3,25.0,92,86,61,30.13,29.61,10,3,17,0.93
2013-2-27,57.9,45.6,37.0,42.2,37.4,34.9,92,75,49,29.82,29.66,12,2,16,0.00
2013-2-28,47.1,41.0,35.5,35.7,28.4,25.7,83,61,46,29.90,29.71,10,3,18,0.00
2013-3-1,45.5,39.1,27.8,31.9,28.9,23.6,88,67,53,29.94,29.87,8,1,12,0.00
2013-3-2,45.3,38.2,33.5,34.5,28.4,21.1,85,68,44,29.96,29.83,8,2,17,0.00
2013-3-3,44.7,34.3,27.4,22.7,18.5,15.7,67,53,37,30.03,29.90,10,3,20,0.00
2013-3-4,55.7,37.2,19.1,26.6,17.9,13.4,84,50,20,30.16,30.02,9,1,14,0.00
2013-3-5,46.7,41.1,34.7,41.8,35.3,26.0,91,80,57,30.08,29.61,7,1,13,0.41
2013-3-6,47.0,39.4,31.6,39.4,27.0,21.9,91,62,47,30.13,29.62,16,7,28,0.02
2013-3-7,53.7,38.9,26.6,31.9,26.7,22.0,84,63,39,30.30,30.12,8,2,15,0.00
2013-3-8,57.2,40.3,24.8,27.9,24.4,19.5,82,57,27,30.35,30.23,9,2,17,0.00
2013-3-9,64.2,43.9,25.1,35.7,28.9,20.6,86,59,29,30.37,30.24,5,1,10,0.00
2013-3-10,66.6,49.9,34.3,39.7,34.9,29.5,88,60,34,30.31,30.17,7,1,14,0.00
2013-3-11,67.2,53.5,39.0,53.4,42.0,31.9,86,66,52,30.20,29.85,13,2,23,0.04
2013-3-12,66.1,57.1,39.4,55.3,46.4,31.8,91,71,36,29.97,29.72,9,3,18,0.32
2013-3-13,52.4,42.8,34.4,32.0,25.9,18.4,82,53,34,30.17,29.97,20,4,31,0.00
2013-3-14,53.9,40.1,26.5,22.1,18.1,13.8,65,43,22,30.30,30.16,9,3,20,0.00
2013-3-15,65.9,46.3,27.8,40.0,29.5,19.6,84,54,36,30.21,29.89,9,2,20,0.00
2013-3-16,78.2,63.2,42.2,50.4,45.4,35.7,83,55,35,29.89,29.66,15,4,25,0.00
2013-3-17,61.7,51.5,41.1,52.5,44.8,37.3,88,78,65,30.13,29.82,14,5,23,0.00
2013-3-18,41.1,38.8,37.5,37.6,36.3,35.1,91,90,87,30.16,29.87,9,3,17,0.42
2013-3-19,63.3,47.6,34.5,44.0,28.7,12.9,93,58,20,30.06,29.85,16,4,27,0.00
2013-3-20,57.1,47.2,37.5,26.3,17.7,12.4,52,31,21,30.12,29.79,12,2,25,0.00
2013-3-21,43.8,36.5,28.0,27.3,14.8,10.8,57,41,30,30.01,29.80,14,4,23,0.00
2013-3-22,52.4,36.4,19.6,25.2,18.1,11.6,78,50,28,30.11,29.98,9,1,15,0.00
2013-3-23,57.0,45.5,35.2,36.8,30.6,24.2,78,57,40,30.06,29.90,7,1,14,0.00
2013-3-24,46.0,40.9,36.8,40.7,37.2,34.1,92,87,70,29.93,29.55,10,3,18,0.52
2013-3-25,46.1,39.0,35.2,35.4,29.4,23.8,91,71,44,29.88,29.56,17,5,27,0.02
2013-3-26,46.7,38.5,27.5,28.1,25.3,22.4,83,60,42,30.19,29.87,10,3,21,0.00
2013-3-27,49.9,38.9,28.3,28.6,24.0,21.1,84,57,36,30.28,30.18,10,2,20,0.00
2013-3-28,54.9,38.9,22.9,28.2,22.6,18.5,87,56,27,30.32,30.21,10,2,17,0.00
2013-3-29,61.1,44.5,24.6,35.6,27.3,20.5,93,55,25,30.37,30.18,10,2,20,0.00
2013-3-30,65.1,51.2,34.8,42.1,35.6,30.7,88,58,35,30.24,30.05,8,1,12,0.00
2013-3-31,67.6,55.2,49.7,56.4,49.8,42.3,92,82,63,30.05,29.78,9,2,17,0.52
2013-4-1,68.6,57.3,43.5,50.8,43.8,35.2,92,65,35,29.96,29.82,14,3,21,0.01
2013-4-2,62.0,50.3,34.4,35.2,28.7,21.1,84,47,23,30.15,29.96,8,2,17,0.00
2013-4-3,60.5,49.3,38.9,34.4,24.1,17.3,61,38,25,30.30,30.13,12,2,17,0.00
2013-4-4,48.9,40.3,35.2,34.2,28.3,19.3,90,66,37,30.32,30.00,9,4,20,0.66
2013-4-5,65.4,49.0,36.6,47.2,38.7,30.2,92,72,27,30.05,29.92,9,2,16,0.00
2013-4-6,67.5,52.7,34.6,39.8,36.0,30.6,89,57,31,30.24,30.05,10,2,15,0.00
2013-4-7,71.5,57.1,39.7,50.8,42.8,34.0,81,60,41,30.23,30.08,8,2,18,0.00
2013-4-8,77.9,64.2,46.5,58.1,51.2,42.2,90,65,43,30.15,30.02,12,3,22,0.00
2013-4-9,83.3,68.5,49.7,59.4,53.9,46.0,90,62,41,30.17,30.04,10,2,15,0.00
2013-4-10,85.5,73.1,58.5,61.9,57.7,53.1,85,60,40,30.07,29.91,10,2,16,0.00
2013-4-11,80.2,70.3,61.4,65.3,60.3,55.9,90,72,51,29.94,29.70,15,3,23,0.22
2013-4-12,81.6,69.8,59.6,65.3,56.6,39.2,92,66,36,29.78,29.58,13,5,26,1.28
2013-4-13,76.5,61.1,41.0,46.9,39.9,33.3,90,50,23,30.01,29.79,9,2,17,0.00
2013-4-14,77.6,61.5,41.0,54.3,43.4,36.6,89,55,30,30.08,29.97,7,1,14,0.00
2013-4-15,62.2,57.9,54.9,58.5,54.6,49.7,92,89,65,30.20,29.98,7,2,14,0.14
2013-4-16,77.9,65.4,55.5,63.6,57.7,52.3,93,78,53,30.29,30.16,6,1,13,0.00
2013-4-17,78.0,66.9,55.1,63.5,58.7,52.3,93,77,54,30.21,30.09,8,1,12,0.00
2013-4-18,77.9,69.3,61.8,62.6,60.0,57.6,90,74,51,30.14,29.95,9,2,18,0.00
2013-4-19,76.0,67.1,54.1,66.3,61.1,40.9,88,81,61,29.95,29.68,13,5,26,0.21
2013-4-20,65.6,52.9,41.8,41.3,35.1,29.7,80,53,30,30.27,29.87,10,2,18,0.00
2013-4-21,59.9,49.6,36.8,42.6,36.9,31.0,87,63,45,30.48,30.27,10,3,17,0.00
2013-4-22,61.6,51.3,40.2,40.5,35.0,30.5,80,56,32,30.46,30.24,10,4,18,0.00
2013-4-23,70.7,56.8,45.0,54.2,45.6,33.6,80,67,49,30.28,30.09,7,1,12,0.00
2013-4-24,73.4,61.9,48.6,58.3,53.4,45.5,93,75,56,30.12,29.96,13,4,26,0.00
2013-4-25,70.0,57.9,44.8,57.2,41.2,33.9,82,56,27,30.28,30.01,8,3,17,0.00
2013-4-26,70.5,55.0,36.0,48.0,38.6,32.5,88,58,29,30.44,30.28,9,1,15,0.00
2013-4-27,63.8,57.2,52.6,55.0,50.8,46.9,90,80,65,30.35,30.25,2,0,6,0.04
2013-4-28,55.7,54.7,53.6,53.4,52.3,51.2,92,92,90,30.25,30.02,7,1,9,1.47
2013-4-29,72.4,60.1,54.4,60.8,55.8,52.4,93,86,63,30.06,29.94,6,1,11,0.16
2013-4-30,69.9,61.5,56.6,61.2,57.0,53.5,92,85,69,30.17,29.98,8,2,14,0.31
2013-5-1,64.6,59.0,54.4,57.1,54.7,51.5,91,86,75,30.29,30.16,10,3,18,0.00
2013-5-2,61.6,57.6,53.7,56.0,53.6,50.7,91,87,81,30.31,30.24,8,3,13,0.04
2013-5-3,64.6,58.8,52.8,53.8,51.4,45.0,90,77,62,30.25,30.12,12,4,20,0.00
2013-5-4,61.8,54.1,49.0,50.4,46.2,42.6,86,75,61,30.15,30.01,12,7,21,0.00
2013-5-5,56.1,52.4,48.9,53.8,47.9,43.9,92,85,73,30.07,29.90,13,7,21,0.35
2013-5-6,71.1,60.6,51.4,61.2,54.6,48.2,93,82,50,29.90,29.79,14,3,25,0.96
2013-5-7,71.5,56.1,49.0,57.3,50.6,46.5,94,83,47,29.95,29.83,9,1,20,0.16
2013-5-8,71.6,60.1,50.9,59.4,54.6,48.7,93,83,60,30.00,29.91,6,1,12,0.00
2013-5-9,81.8,65.6,48.6,60.8,54.9,46.1,93,71,42,30.07,29.98,7,1,11,0.00
2013-5-10,81.6,69.0,53.1,64.5,58.8,50.5,93,72,49,30.05,29.92,10,2,22,0.00
2013-5-11,79.0,69.6,61.2,64.5,60.9,58.2,91,75,54,29.93,29.76,10,2,22,0.64
2013-5-12,69.3,61.2,47.3,59.2,47.1,36.0,92,64,31,30.03,29.82,9,3,20,0.02
2013-5-13,67.2,53.6,37.9,47.4,36.6,29.4,91,58,25,30.18,30.04,10,2,20,0.00
2013-5-14,72.3,56.8,37.1,47.0,41.7,34.2,91,61,36,30.26,30.06,9,2,16,0.00
2013-5-15,88.4,68.2,48.2,65.9,56.1,44.9,92,68,44,30.06,29.89,9,2,16,0.00
2013-5-16,82.6,69.5,54.9,62.2,58.3,52.3,92,71,43,29.99,29.90,6,1,10,0.00
2013-5-17,85.4,71.0,55.1,65.4,60.1,52.3,92,71,45,30.07,29.97,6,1,10,0.00
2013-5-18,67.5,63.4,62.5,61.8,59.9,59.4,90,88,82,30.12,30.04,1,0,3,0.05
2013-5-19,76.1,70.0,65.3,69.8,65.5,61.0,93,86,72,30.14,30.00,7,1,14,1.12
2013-5-20,80.5,71.5,66.6,71.0,66.9,64.2,93,86,66,30.10,29.99,5,1,10,1.28
2013-5-21,87.3,74.2,65.3,72.4,66.8,62.9,94,79,54,30.03,29.90,7,1,13,0.00
2013-5-22,84.3,72.8,64.2,70.9,65.4,60.4,91,79,51,29.98,29.85,13,2,28,0.13
2013-5-23,80.7,68.5,60.4,69.2,63.5,56.6,93,85,60,29.95,29.79,15,1,30,0.64
2013-5-24,70.8,62.6,51.4,59.6,48.8,36.6,94,65,32,30.19,29.85,13,3,23,0.00
2013-5-25,77.1,60.0,42.0,49.9,43.2,38.4,88,58,29,30.30,30.13,8,1,12,0.00
2013-5-26,75.6,63.3,54.5,56.2,49.3,39.9,84,62,40,30.27,30.15,6,1,11,0.00
2013-5-27,80.7,67.3,50.7,60.6,55.5,47.9,92,69,47,30.26,30.11,7,1,14,0.00
2013-5-28,83.4,73.0,60.8,66.0,62.0,56.5,91,70,51,30.20,30.11,7,2,15,0.00
2013-5-29,84.3,73.7,60.2,68.5,62.8,56.6,91,70,49,30.21,30.12,7,2,13,0.00
2013-5-30,85.4,71.8,58.1,67.9,61.9,55.5,93,73,44,30.25,30.14,6,1,10,0.00
2013-5-31,85.0,73.4,61.5,68.6,63.7,58.2,92,74,50,30.19,30.07,8,2,14,0.00
2013-6-1,84.5,76.2,65.8,68.4,65.7,61.8,89,71,52,30.09,29.97,9,3,17,0.00
2013-6-2,79.9,72.6,66.4,70.3,66.3,63.5,93,81,70,30.01,29.88,9,3,15,1.11
2013-6-3,85.1,72.3,65.8,72.5,67.0,62.8,93,85,60,29.95,29.80,7,1,13,0.17
2013-6-4,77.5,70.6,65.3,67.9,64.5,62.5,92,82,65,30.07,29.93,7,2,12,0.00
2013-6-5,74.6,68.6,64.9,67.7,64.5,61.9,92,87,78,30.10,29.97,8,2,14,0.52
2013-6-6,77.4,70.5,65.5,72.5,67.7,63.1,94,91,82,29.98,29.77,8,1,12,1.95
2013-6-7,80.4,71.4,67.4,71.7,67.5,65.2,93,88,70,29.82,29.62,7,2,13,0.25
2013-6-8,84.4,73.5,63.2,70.3,66.1,60.8,93,79,56,30.06,29.79,5,1,12,0.17
2013-6-9,85.4,73.9,64.5,71.9,67.5,62.1,93,82,54,30.12,30.01,6,1,20,0.21
2013-6-10,80.3,73.1,69.0,71.7,68.5,65.3,93,86,73,30.05,29.85,10,3,23,0.28
2013-6-11,85.9,74.8,66.3,69.9,65.4,63.0,93,75,50,29.96,29.89,8,2,15,0.02
2013-6-12,92.0,77.4,61.8,77.0,68.9,59.2,93,77,54,29.97,29.84,8,2,15,0.00
2013-6-13,92.3,78.0,67.1,73.2,69.5,61.9,93,77,51,29.84,29.61,15,2,31,0.45
2013-6-14,81.7,71.3,57.5,63.9,58.2,54.0,90,65,43,30.01,29.73,10,3,18,0.00
2013-6-15,84.2,71.5,55.3,65.3,60.3,52.4,92,70,49,30.12,30.01,5,1,13,0.00
2013-6-16,85.7,75.3,64.0,69.6,65.0,60.0,88,72,54,30.10,29.98,7,2,15,0.00
2013-6-17,84.9,75.2,70.7,73.5,68.6,65.6,90,80,61,30.00,29.90,8,1,17,0.46
2013-6-18,80.1,73.1,69.1,73.6,69.0,66.0,92,87,75,29.94,29.77,8,2,15,0.24
2013-6-19,81.5,72.8,62.5,68.8,65.2,59.9,93,78,57,30.09,29.88,3,1,8,0.00
2013-6-20,80.1,71.5,64.9,69.0,65.3,61.9,93,82,61,30.21,30.09,6,1,12,0.00
2013-6-21,83.6,71.3,62.1,68.3,63.1,59.1,93,77,57,30.25,30.16,8,1,12,0.00
2013-6-22,85.1,72.1,59.3,71.3,64.3,56.4,92,78,54,30.22,30.09,6,1,12,0.00
2013-6-23,89.6,76.7,65.7,72.8,68.2,63.3,93,77,47,30.19,30.08,7,1,14,0.00
2013-6-24,87.4,75.2,67.4,75.2,69.4,64.7,93,83,60,30.18,30.06,7,1,12,0.31
2013-6-25,89.0,77.3,68.0,76.0,70.0,65.6,93,79,56,30.10,29.96,6,1,9,0.00
2013-6-26,89.7,74.7,67.9,75.8,68.3,62.8,92,81,56,30.00,29.86,10,1,20,0.44
2013-6-27,87.8,76.4,67.3,75.5,70.4,64.9,93,83,63,29.91,29.69,7,2,14,0.01
2013-6-28,91.2,78.3,67.1,73.5,69.6,64.4,93,76,48,29.73,29.56,8,2,17,0.25
2013-6-29,87.0,77.4,67.4,72.0,69.0,65.0,93,77,55,29.68,29.57,6,1,12,0.00
2013-6-30,86.6,75.4,68.7,73.7,69.1,65.7,91,82,55,29.82,29.65,10,1,16,0.07
2013-7-1,82.1,73.6,66.5,71.5,68.1,63.8,93,84,65,29.94,29.80,7,1,12,0.04
2013-7-2,79.1,72.9,69.4,72.5,69.4,66.7,92,89,76,30.12,29.93,8,2,18,1.38
2013-7-3,79.2,74.1,70.8,73.4,70.9,68.5,94,90,81,30.19,30.10,5,1,12,0.79
2013-7-4,85.4,74.4,69.2,74.8,69.8,66.7,93,86,64,30.23,30.12,10,2,20,1.02
2013-7-5,83.9,74.9,69.6,74.6,70.9,66.9,93,88,72,30.23,30.15,8,1,14,0.42
2013-7-6,84.1,75.5,70.6,74.2,70.7,68.3,93,86,65,30.22,30.08,10,1,20,0.69
2013-7-7,83.6,76.4,72.2,76.2,72.3,69.1,93,87,76,30.15,30.03,5,1,14,0.96
2013-7-8,88.1,77.4,70.8,73.8,70.5,68.3,93,81,55,30.16,30.06,3,0,9,0.02
2013-7-9,91.9,79.9,71.2,75.5,71.6,68.5,93,78,50,30.12,30.01,7,1,13,0.00
2013-7-10,86.6,77.8,70.6,75.0,71.1,67.5,92,81,65,30.07,29.90,6,1,12,0.00
2013-7-11,83.1,73.7,67.0,75.6,69.9,64.2,93,88,74,29.93,29.84,9,1,26,1.58
2013-7-12,79.8,72.0,67.4,72.1,67.7,64.3,94,87,70,30.00,29.86,7,2,14,0.00
2013-7-13,78.8,71.9,67.2,71.5,68.0,64.2,92,88,76,30.11,30.00,7,2,12,0.11
2013-7-14,85.2,76.3,70.9,74.0,70.9,67.8,93,84,64,30.26,30.08,12,3,21,0.07
2013-7-15,87.4,76.6,68.1,75.0,69.7,65.7,93,80,56,30.31,30.22,5,1,8,0.00
2013-7-16,94.8,79.5,66.0,77.8,70.4,63.5,93,76,45,30.28,30.17,3,0,8,0.00
2013-7-17,92.0,76.2,70.1,78.8,70.9,65.3,93,85,52,30.22,30.11,13,1,27,0.29
2013-7-18,92.8,78.6,68.1,77.1,71.4,65.7,93,80,55,30.14,30.01,6,0,13,0.00
2013-7-19,89.5,79.3,68.8,75.0,71.6,66.4,93,79,59,30.08,29.95,8,1,13,0.00
2013-7-20,85.7,75.4,71.0,76.5,71.0,68.2,92,86,66,29.99,29.89,6,2,10,1.13
2013-7-21,87.7,74.0,67.9,75.8,69.9,65.5,93,88,64,29.99,29.89,7,0,16,0.25
2013-7-22,85.5,76.2,70.4,74.0,70.6,68.2,93,84,66,29.96,29.80,6,1,12,0.00
2013-7-23,88.2,77.5,68.1,72.0,68.8,65.4,92,76,51,29.82,29.72,8,2,16,0.00
2013-7-24,91.7,77.7,65.1,75.4,68.9,62.5,93,76,53,29.84,29.72,5,0,12,0.00
2013-7-25,82.3,73.5,65.6,69.2,66.2,62.3,91,79,59,30.01,29.81,6,1,12,0.00
2013-7-26,85.2,74.4,65.6,69.5,66.7,62.9,93,78,56,30.09,29.98,6,1,10,0.00
2013-7-27,72.5,69.7,66.9,69.6,66.7,64.3,93,90,87,30.01,29.90,5,1,10,3.16
2013-7-28,85.1,74.7,67.7,72.0,68.3,65.3,93,82,61,29.97,29.89,6,1,10,0.10
2013-7-29,85.0,73.3,63.0,70.9,64.6,60.3,92,76,49,30.15,29.97,5,0,9,0.00
2013-7-30,83.5,72.2,62.6,71.5,63.7,58.0,90,76,56,30.21,30.11,6,0,9,0.00
2013-7-31,77.2,71.2,68.3,70.8,67.7,65.8,92,89,76,30.14,29.97,6,0,12,0.25
2013-8-1,85.6,74.1,69.6,73.4,68.7,63.8,93,84,56,29.97,29.84,5,1,12,0.86
2013-8-2,85.9,74.5,63.2,72.5,66.6,60.6,93,78,54,30.01,29.90,5,0,9,0.00
2013-8-3,87.8,75.5,66.5,74.4,68.5,63.8,93,81,53,30.00,29.90,6,1,13,0.00
2013-8-4,86.9,75.6,67.0,71.1,65.9,62.1,92,74,44,30.02,29.90,8,1,13,0.03
2013-8-5,82.7,72.3,63.8,69.7,64.8,60.1,89,78,63,30.06,29.95,5,1,12,0.03
2013-8-6,76.8,71.1,66.5,70.4,66.9,62.8,91,87,79,30.03,29.95,6,1,12,0.44
2013-8-7,81.4,73.9,69.5,71.8,68.7,66.6,92,84,68,30.07,29.99,7,1,12,0.00
2013-8-8,84.1,75.4,70.4,74.8,70.9,67.6,92,86,70,30.04,29.96,5,1,12,0.05
2013-8-9,87.4,76.0,70.2,77.2,71.3,67.5,93,86,66,30.03,29.95,8,1,17,0.35
2013-8-10,88.2,74.9,70.3,77.4,70.7,66.9,93,88,60,30.08,30.01,12,1,18,0.14
2013-8-11,88.6,76.8,68.2,75.1,71.0,66.1,94,83,61,30.10,30.00,6,0,12,0.00
2013-8-12,88.6,76.1,68.2,74.8,70.0,65.8,93,83,58,30.03,29.92,7,0,12,0.26
2013-8-13,85.6,74.0,67.6,75.7,69.3,65.5,94,86,62,29.93,29.78,9,1,20,0.00
2013-8-14,78.0,69.9,62.4,68.3,62.7,59.1,91,79,55,30.07,29.84,7,1,14,0.00
2013-8-15,73.0,63.8,57.4,63.2,57.0,53.3,90,79,59,30.16,30.06,6,1,12,0.00
2013-8-16,73.1,62.5,55.9,61.2,57.1,53.0,92,83,65,30.17,30.09,6,1,12,0.00
2013-8-17,65.5,62.1,58.7,61.5,58.9,55.8,92,89,83,30.19,30.13,8,1,13,0.43
2013-8-18,79.1,68.9,62.9,69.8,65.0,60.5,93,88,70,30.22,30.12,5,0,7,0.37
2013-8-19,76.5,69.4,65.6,69.1,65.9,62.8,93,89,75,30.17,30.07,3,0,7,0.24
2013-8-20,79.1,71.4,64.3,71.5,66.9,61.7,93,86,74,30.17,30.09,2,0,5,0.00
2013-8-21,83.2,73.0,67.1,73.3,69.0,64.7,93,87,68,30.21,30.09,5,0,9,0.01
2013-8-22,88.7,77.4,69.3,73.0,69.5,65.9,93,78,53,30.13,29.97,6,1,14,0.32
2013-8-23,84.8,72.2,65.1,72.6,67.1,62.7,93,84,62,30.08,29.94,12,1,20,0.16
2013-8-24,79.6,69.3,59.7,64.8,60.0,56.4,91,74,46,30.29,30.08,8,2,14,0.00
2013-8-25,79.1,66.3,55.0,65.5,58.7,52.4,93,78,50,30.38,30.27,7,1,12,0.00
2013-8-26,83.8,68.3,53.9,68.9,60.3,51.3,93,77,52,30.32,30.10,3,0,10,0.00
2013-8-27,88.1,73.8,60.9,73.8,66.5,58.3,93,79,56,30.12,29.96,5,0,9,0.00
2013-8-28,88.4,76.5,65.7,74.0,69.5,63.3,93,80,59,29.99,29.88,6,1,12,0.00
2013-8-29,88.5,78.9,69.2,75.1,71.1,66.1,92,78,61,29.97,29.85,6,1,13,0.00
2013-8-30,84.3,75.6,69.2,71.8,68.0,65.1,92,78,58,30.03,29.91,6,1,9,0.00
2013-8-31,85.9,74.6,66.6,74.9,68.9,63.6,93,83,63,29.93,29.83,6,1,16,0.01
2013-9-1,87.2,72.2,65.7,75.8,67.7,63.3,93,87,65,29.88,29.76,8,1,20,0.46
2013-9-2,88.4,75.1,67.0,75.9,69.3,64.9,94,83,58,29.89,29.78,5,0,12,0.01
2013-9-3,86.6,75.2,65.8,73.8,67.4,63.4,93,78,52,29.93,29.79,6,1,13,0.00
2013-9-4,85.9,73.7,59.3,71.0,63.6,57.0,92,73,51,30.08,29.93,5,1,9,0.00
2013-9-5,86.7,72.0,60.2,71.1,62.6,57.6,93,75,42,30.10,30.03,3,0,6,0.00
2013-9-6,80.7,69.0,60.2,65.4,60.8,57.5,94,77,55,30.19,30.06,7,1,12,0.00
2013-9-7,82.2,68.8,58.1,68.8,62.3,55.4,92,81,59,30.13,29.96,7,1,10,0.00
2013-9-8,85.7,72.4,60.2,72.3,64.3,57.9,93,78,50,29.98,29.90,5,0,9,0.00
2013-9-9,85.2,73.1,62.1,71.4,65.8,59.7,93,80,54,30.12,29.98,6,1,10,0.00
2013-9-10,87.9,74.4,62.2,73.4,66.7,59.8,93,79,53,30.22,30.11,5,0,7,0.00
2013-9-11,88.0,75.2,64.9,74.2,68.8,62.3,93,82,57,30.18,30.05,6,0,10,0.00
2013-9-12,89.0,73.2,65.7,73.6,67.5,63.3,93,84,54,30.05,29.81,12,0,20,0.39
2013-9-13,81.5,70.5,59.6,67.0,60.2,51.7,93,72,43,29.91,29.77,8,1,13,0.00
2013-9-14,77.7,62.5,52.6,61.5,52.8,47.6,90,72,48,30.12,29.91,7,1,13,0.00
2013-9-15,78.8,63.1,50.1,65.8,56.6,47.6,92,81,59,30.23,30.11,5,0,8,0.00
2013-9-16,84.0,69.0,57.4,67.8,61.0,55.1,93,78,49,30.17,30.05,5,1,12,0.00
2013-9-17,71.3,64.4,58.4,58.2,55.8,54.1,87,74,57,30.30,30.17,8,2,13,0.00
2013-9-18,73.3,62.3,55.8,59.8,54.5,51.7,87,77,58,30.31,30.16,5,1,9,0.00
2013-9-19,72.8,64.1,56.0,65.4,59.1,53.1,92,84,65,30.18,30.07,2,0,8,0.02
2013-9-20,85.5,70.0,59.9,69.2,63.7,57.6,93,82,54,30.08,29.90,8,1,15,0.03
2013-9-21,72.2,68.1,62.7,67.5,65.1,60.4,92,90,83,29.92,29.68,9,2,15,0.63
2013-9-22,76.2,64.5,53.9,61.4,56.2,51.4,92,76,50,29.91,29.71,6,1,13,0.00
2013-9-23,73.9,61.7,53.6,61.5,54.0,50.0,91,77,56,30.07,29.91,5,1,12,0.00
2013-9-24,78.6,67.3,56.5,62.5,58.4,53.6,92,75,52,30.08,29.92,3,0,7,0.00
2013-9-25,68.8,60.4,54.2,62.3,56.9,51.6,93,88,75,29.93,29.86,3,0,6,0.05
2013-9-26,74.6,62.5,52.6,60.7,55.2,49.8,93,79,49,30.04,29.88,7,1,12,0.00
2013-9-27,74.0,61.6,50.6,58.1,53.5,47.8,93,77,52,30.19,30.04,7,1,17,0.00
2013-9-28,70.3,58.3,49.7,57.8,51.5,46.4,93,79,56,30.26,30.17,7,1,12,0.00
2013-9-29,71.6,59.5,49.1,58.8,53.5,46.1,92,82,59,30.19,30.03,5,0,8,0.00
2013-9-30,77.9,62.5,48.1,61.3,54.1,45.6,94,77,46,30.10,29.99,3,0,8,0.00
2013-10-1,81.6,64.6,50.5,64.8,56.6,48.0,93,78,46,30.12,30.02,6,0,9,0.00
2013-10-2,81.5,65.7,51.7,66.8,57.6,49.2,94,77,49,30.15,30.04,3,0,8,0.00
2013-10-3,82.9,67.2,56.4,67.0,59.4,53.8,94,78,48,30.12,30.04,5,0,10,0.00
2013-10-4,84.5,68.5,54.5,71.5,60.9,52.0,93,79,49,30.14,30.05,3,0,8,0.00
2013-10-5,86.7,68.6,56.6,68.9,61.3,54.1,93,80,47,30.12,30.01,3,0,9,0.00
2013-10-6,83.0,68.7,57.9,68.6,60.9,55.6,93,78,50,30.03,29.87,8,1,13,0.00
2013-10-7,72.6,66.5,56.4,67.7,61.5,49.3,93,84,64,30.01,29.78,8,1,15,1.36
2013-10-8,68.1,58.4,52.0,51.1,47.8,45.8,80,69,50,30.22,30.01,12,3,20,0.00
2013-10-9,70.5,58.0,48.3,51.5,47.2,43.4,84,69,44,30.24,30.12,9,2,20,0.00
2013-10-10,72.3,59.3,47.1,60.8,53.3,43.7,91,81,66,30.13,29.97,8,1,13,0.00
2013-10-11,77.6,66.7,55.5,63.3,57.8,51.9,90,74,51,29.98,29.89,6,0,10,0.00
2013-10-12,71.3,63.8,56.2,62.4,58.9,53.3,92,84,70,30.08,29.95,5,0,7,0.00
2013-10-13,69.9,64.6,60.4,62.1,59.8,57.8,92,85,73,30.21,30.08,7,2,12,0.00
2013-10-14,70.4,62.2,56.8,61.4,57.5,53.6,92,85,70,30.24,30.14,8,2,12,0.07
2013-10-15,73.9,61.9,54.5,57.1,54.1,51.3,91,77,48,30.20,30.04,8,1,12,0.00
2013-10-16,72.9,61.0,51.2,61.3,55.3,48.7,93,83,63,30.08,29.94,5,0,8,0.00
2013-10-17,70.0,62.8,57.1,63.4,59.5,54.5,92,89,77,29.97,29.82,6,1,9,0.04
2013-10-18,68.6,58.2,50.1,58.9,51.4,47.3,91,79,57,30.04,29.88,5,1,8,0.00
2013-10-19,62.3,55.2,48.0,58.4,52.3,45.2,93,90,83,29.97,29.83,5,0,9,0.01
2013-10-20,65.8,51.4,39.8,47.1,41.0,36.5,91,71,38,30.11,29.92,5,1,12,0.00
2013-10-21,68.5,50.3,34.4,54.9,43.5,31.8,92,79,54,30.17,30.00,6,0,13,0.00
2013-10-22,67.0,57.8,50.0,55.7,51.9,47.0,92,82,60,30.01,29.78,5,0,7,0.00
2013-10-23,63.6,53.7,39.9,54.3,42.6,31.1,92,69,38,30.03,29.71,13,3,26,0.00
2013-10-24,56.7,42.6,29.2,41.3,33.4,26.1,90,72,46,30.19,30.03,12,1,17,0.00
2013-10-25,52.8,40.7,29.0,36.0,30.6,24.8,90,70,43,30.40,30.19,7,1,12,0.00
2013-10-26,57.8,40.8,23.1,36.7,29.5,20.1,90,67,39,30.39,30.09,8,1,15,0.00
2013-10-27,69.4,52.7,36.5,49.2,41.6,33.2,91,68,43,30.13,30.03,8,1,13,0.00
2013-10-28,62.7,50.0,43.8,52.5,45.2,40.8,92,84,64,30.25,30.11,2,0,4,0.00